Time;durP1;ratioP1;P1;durP2;ratioP2;P2;SDS_P1;SDS_P2;PMS_P1;PMS_P2;Temp;Humidity;BMP_temperature;BMP_pressure;BME280_temperature;BME280_humidity;BME280_pressure;Samples;Min_cycle;Max_cycle;Signal;HPM_P1;HPM_P2
2022/10/11 00:01:30;;;;;;;5.35;1.92;;;;;;;7.10;84.44;102357.09;5012840;28;20030;-75
2022/10/11 00:03:55;;;;;;;7.85;2.55;;;;;;;7.10;84.43;102362.28;5011790;28;20029;-75
2022/10/11 00:06:21;;;;;;;5.03;2.28;;;;;;;7.10;84.75;102364.88;5012298;28;20113;-75
2022/10/11 00:08:46;;;;;;;6.35;1.98;;;;;;;7.09;84.42;102360.53;5012519;28;20376;-75
2022/10/11 00:11:11;;;;;;;8.10;2.38;;;;;;;7.09;83.79;102376.06;5013949;28;20030;-75
2022/10/11 00:13:36;;;;;;;6.50;2.22;;;;;;;7.09;83.57;102360.53;5013975;28;20034;-76
2022/10/11 00:16:06;;;;;;;5.80;2.60;;;;;;;7.07;83.07;102367.41;5010851;28;20021;-75
2022/10/11 00:18:32;;;;;;;4.43;2.00;;;;;;;7.02;82.51;102374.22;4995410;28;20029;-75
2022/10/11 00:21:05;;;;;;;4.65;1.95;;;;;;;6.97;82.30;102381.09;5024077;28;20384;-75
2022/10/11 00:23:31;;;;;;;4.95;2.10;;;;;;;6.93;82.26;102387.06;5013307;28;20113;-75
2022/10/11 00:25:58;;;;;;;4.38;2.10;;;;;;;6.90;82.25;102380.13;5011392;28;20026;-75
2022/10/11 00:28:23;;;;;;;5.88;2.28;;;;;;;6.90;82.69;102374.97;4990442;28;20033;-75
2022/10/11 00:30:48;;;;;;;4.90;2.17;;;;;;;6.88;82.70;102375.75;5011393;28;20378;-75
2022/10/11 00:33:14;;;;;;;6.97;2.45;;;;;;;6.89;83.29;102377.50;5013269;28;20026;-75
2022/10/11 00:35:40;;;;;;;6.03;2.22;;;;;;;6.87;83.33;102380.09;5011057;28;20036;-75
2022/10/11 00:38:06;;;;;;;5.00;1.65;;;;;;;6.82;81.47;102379.13;5010965;28;20047;-75
2022/10/11 00:40:31;;;;;;;3.17;1.60;;;;;;;6.73;81.98;102377.28;5012670;28;20481;-75
2022/10/11 00:42:56;;;;;;;2.67;1.45;;;;;;;6.67;81.54;102388.41;4994672;28;20042;-75
2022/10/11 00:45:30;;;;;;;3.35;1.65;;;;;;;6.62;81.44;102378.84;5011944;28;20064;-75
2022/10/11 00:48:01;;;;;;;4.38;1.30;;;;;;;6.57;81.56;102380.47;5011071;28;20052;-75
2022/10/11 00:50:29;;;;;;;2.63;1.42;;;;;;;6.53;81.38;102389.91;5009869;28;20038;-75
2022/10/11 00:52:58;;;;;;;2.78;1.27;;;;;;;6.49;81.07;102388.97;5010744;28;20034;-76
2022/10/11 00:55:27;;;;;;;2.28;1.05;;;;;;;6.45;81.15;102399.25;5009766;28;20037;-75
2022/10/11 00:57:55;;;;;;;1.85;1.10;;;;;;;6.42;81.20;102394.91;5008082;28;20025;-75
2022/10/11 01:00:20;;;;;;;1.50;1.10;;;;;;;6.38;80.88;102395.69;5013218;28;20046;-75
2022/10/11 01:02:45;;;;;;;2.38;1.02;;;;;;;6.31;80.62;102393.84;5013346;28;20075;-75
2022/10/11 01:05:15;;;;;;;2.22;1.15;;;;;;;6.28;81.27;102398.97;5012274;28;20050;-75
2022/10/11 01:07:43;;;;;;;3.50;1.40;;;;;;;6.27;81.58;102394.66;5012591;28;20476;-75
2022/10/11 01:10:09;;;;;;;2.88;1.30;;;;;;;6.27;81.78;102397.22;5012984;28;20358;-75
2022/10/11 01:12:35;;;;;;;3.45;1.63;;;;;;;6.26;82.07;102393.75;5014778;28;20038;-75
2022/10/11 01:15:04;;;;;;;3.17;1.67;;;;;;;6.28;82.23;102396.38;5011983;28;20354;-75
2022/10/11 01:17:54;;;;;;;3.40;1.90;;;;;;;6.29;81.77;102392.97;5012335;28;20101;-75
2022/10/11 01:20:40;;;;;;;3.92;1.90;;;;;;;6.23;81.65;102392.00;5011910;28;20017;-75
2022/10/11 01:23:05;;;;;;;2.95;1.35;;;;;;;6.20;81.10;102396.25;5015687;28;20017;-75
2022/10/11 01:26:02;;;;;;;2.13;1.25;;;;;;;6.17;80.96;102398.78;5032946;28;20373;-75
2022/10/11 01:28:58;;;;;;;3.08;1.20;;;;;;;6.16;81.46;102397.88;5006943;28;20044;-75
2022/10/11 01:31:39;;;;;;;2.97;1.25;;;;;;;6.15;80.93;102401.31;5009700;28;20105;-75
2022/10/11 01:34:20;;;;;;;3.97;1.55;;;;;;;6.14;80.84;102401.28;5008827;28;20021;-75
2022/10/11 01:37:05;;;;;;;3.90;1.50;;;;;;;6.11;80.83;102404.72;5012357;28;20045;-76
2022/10/11 01:39:50;;;;;;;3.25;1.55;;;;;;;6.10;81.44;102405.56;5010181;28;20038;-75
2022/10/11 01:42:17;;;;;;;2.38;1.52;;;;;;;6.07;80.90;102406.34;5010100;28;20030;-75
2022/10/11 01:44:47;;;;;;;2.72;1.30;;;;;;;6.03;80.02;102404.56;5009495;28;20044;-75
2022/10/11 01:47:13;;;;;;;3.97;1.30;;;;;;;5.99;80.45;102407.00;5011127;28;20049;-75
2022/10/11 01:49:38;;;;;;;3.63;1.25;;;;;;;5.92;80.20;102406.91;5011406;28;20469;-75
2022/10/11 01:52:05;;;;;;;3.30;1.20;;;;;;;5.86;78.75;102411.09;5015093;28;20057;-75
2022/10/11 01:54:55;;;;;;;2.35;1.50;;;;;;;5.82;79.83;102420.47;5014880;28;20251;-75
2022/10/11 01:57:52;;;;;;;3.13;1.48;;;;;;;5.76;80.57;102416.06;5011859;28;20049;-75
2022/10/11 02:00:24;;;;;;;2.00;1.30;;;;;;;5.71;80.62;102422.88;5003742;28;20073;-75
2022/10/11 02:03:08;;;;;;;;;;;;;;;5.75;79.93;102416.06;5018361;28;20038;-75
2022/10/11 02:06:04;;;;;;;2.00;1.15;;;;;;;5.65;80.26;102416.69;5015815;28;19920;-75
2022/10/11 02:08:44;;;;;;;4.47;1.38;;;;;;;5.61;80.64;102414.06;5016281;28;20049;-74
2022/10/11 02:11:23;;;;;;;2.92;1.48;;;;;;;5.56;80.48;102423.41;5017509;28;20037;-74
2022/10/11 02:14:00;;;;;;;2.35;1.30;;;;;;;5.53;80.45;102422.50;5017189;28;20040;-75
2022/10/11 02:16:32;;;;;;;2.15;1.38;;;;;;;5.50;81.40;102418.13;5016128;28;20393;-76
2022/10/11 02:19:01;;;;;;;2.67;1.33;;;;;;;5.50;81.22;102428.44;5018840;28;20753;-75
2022/10/11 02:21:26;;;;;;;4.25;1.52;;;;;;;5.50;82.21;102433.59;5016421;28;20038;-75
2022/10/11 02:24:24;;;;;;;3.60;1.63;;;;;;;5.54;81.53;102427.69;5017837;28;20026;-75
2022/10/11 02:26:53;;;;;;;3.70;1.50;;;;;;;5.56;81.29;102428.59;5005903;28;20105;-75
2022/10/11 02:29:22;;;;;;;3.10;1.88;;;;;;;5.57;81.91;102430.31;5016814;28;20017;-75
2022/10/11 02:31:49;;;;;;;3.05;1.75;;;;;;;5.57;82.44;102432.91;5015745;28;20109;-75
2022/10/11 02:34:22;;;;;;;4.20;2.00;;;;;;;5.60;82.38;102430.41;5019190;28;20028;-75
2022/10/11 02:37:03;;;;;;;3.80;2.15;;;;;;;5.62;82.10;102427.84;5009595;28;20022;-75
2022/10/11 02:39:36;;;;;;;5.43;1.98;;;;;;;5.60;81.18;102435.56;5018552;28;20030;-74
2022/10/11 02:42:05;;;;;;;3.15;1.80;;;;;;;5.55;81.18;102438.88;4998777;28;20037;-75
2022/10/11 02:44:39;;;;;;;2.40;1.55;;;;;;;5.53;81.50;102441.41;5016583;28;20060;-75
2022/10/11 02:47:05;;;;;;;4.55;1.75;;;;;;;5.53;81.62;102438.84;5016140;28;20124;-75
2022/10/11 02:49:31;;;;;;;2.92;1.77;;;;;;;5.50;80.70;102438.78;5018926;28;20024;-74
2022/10/11 02:51:57;;;;;;;2.88;1.50;;;;;;;5.49;80.68;102443.91;5009088;28;20030;-75
2022/10/11 02:54:24;;;;;;;3.15;1.70;;;;;;;5.45;80.64;102445.56;5016642;28;20378;-75
2022/10/11 02:56:49;;;;;;;2.13;1.48;;;;;;;5.43;80.83;102449.81;5017100;28;20473;-75
2022/10/11 02:59:15;;;;;;;2.58;1.60;;;;;;;5.40;81.09;102436.84;5017794;28;20104;-75
2022/10/11 03:01:40;;;;;;;2.70;1.33;;;;;;;5.37;80.68;102447.97;5015175;28;20369;-75
2022/10/11 03:04:05;;;;;;;2.08;1.38;;;;;;;5.35;81.10;102441.03;5014059;28;20061;-75
2022/10/11 03:06:31;;;;;;;1.90;0.98;;;;;;;5.32;81.30;102442.69;5015412;28;20038;-75
2022/10/11 03:08:56;;;;;;;2.97;1.10;;;;;;;5.32;80.97;102447.00;5014894;28;20077;-75
2022/10/11 03:11:21;;;;;;;2.55;1.02;;;;;;;5.28;80.76;102440.91;5014003;28;20021;-75
2022/10/11 03:13:46;;;;;;;1.30;1.00;;;;;;;5.23;80.37;102442.50;5013283;28;20469;-75
2022/10/11 03:16:12;;;;;;;0.75;0.70;;;;;;;5.18;79.78;102438.94;5014143;28;20030;-75
2022/10/11 03:18:37;;;;;;;1.33;1.02;;;;;;;5.12;79.15;102443.97;5012972;28;20041;-75
2022/10/11 03:21:02;;;;;;;2.42;1.33;;;;;;;5.08;79.34;102447.31;5013846;28;20112;-75
2022/10/11 03:23:28;;;;;;;1.67;1.17;;;;;;;4.99;78.17;102446.25;5012705;28;20034;-75
2022/10/11 03:25:53;;;;;;;1.45;1.20;;;;;;;4.93;79.13;102451.28;5013098;28;20091;-75
2022/10/11 03:28:19;;;;;;;2.42;1.33;;;;;;;4.90;79.24;102452.91;5011593;28;20520;-75
2022/10/11 03:30:49;;;;;;;2.33;1.55;;;;;;;4.90;79.46;102451.22;5013990;28;20049;-75
2022/10/11 03:33:16;;;;;;;2.72;1.50;;;;;;;4.91;80.08;102449.50;4996608;28;20358;-75
2022/10/11 03:35:44;;;;;;;2.53;1.50;;;;;;;4.85;79.84;102452.78;5013528;28;20045;-75
2022/10/11 03:38:12;;;;;;;2.92;1.50;;;;;;;4.83;79.58;102457.03;5013826;28;20033;-75
2022/10/11 03:40:38;;;;;;;1.80;1.17;;;;;;;4.78;79.78;102454.34;5014384;28;20022;-75
2022/10/11 03:43:03;;;;;;;1.88;1.33;;;;;;;4.74;79.23;102457.69;5013079;28;20034;-75
2022/10/11 03:45:28;;;;;;;2.13;1.38;;;;;;;4.70;79.66;102464.47;5012455;28;20492;-75
2022/10/11 03:47:54;;;;;;;3.17;1.52;;;;;;;4.70;80.43;102459.31;5011440;28;20038;-75
2022/10/11 03:50:19;;;;;;;2.17;1.45;;;;;;;4.69;80.29;102462.75;4996836;28;20029;-75
2022/10/11 03:52:44;;;;;;;2.53;1.43;;;;;;;4.67;80.19;102466.13;5013186;28;20481;-75
2022/10/11 03:55:09;;;;;;;2.17;1.40;;;;;;;4.67;80.30;102471.28;5012836;28;20065;-75
2022/10/11 03:57:35;;;;;;;4.15;1.50;;;;;;;4.64;79.86;102472.06;5012811;28;20026;-75
2022/10/11 04:00:00;;;;;;;3.25;1.40;;;;;;;4.62;79.82;102475.44;5012022;28;20038;-75
2022/10/11 04:02:25;;;;;;;3.22;1.40;;;;;;;4.56;80.04;102481.31;5012592;28;20088;-75
2022/10/11 04:04:51;;;;;;;1.80;1.30;;;;;;;4.56;80.39;102478.72;5011776;28;20029;-75
2022/10/11 04:07:16;;;;;;;2.90;1.50;;;;;;;4.57;79.92;102480.47;5003882;28;20026;-75
2022/10/11 04:09:41;;;;;;;2.72;1.40;;;;;;;4.54;80.37;102475.25;5013341;28;20404;-75
2022/10/11 04:12:07;;;;;;;3.75;1.88;;;;;;;4.54;80.02;102477.81;5012720;28;20026;-75
2022/10/11 04:14:32;;;;;;;4.68;1.95;;;;;;;4.51;79.95;102482.88;5012017;28;20033;-75
2022/10/11 04:16:58;;;;;;;2.88;1.80;;;;;;;4.49;79.95;102485.44;5015027;28;20576;-75
2022/10/11 04:19:23;;;;;;;3.88;1.92;;;;;;;4.49;79.93;102482.88;5012567;28;20500;-75
2022/10/11 04:21:48;;;;;;;4.22;2.00;;;;;;;4.47;80.37;102494.84;5012895;28;20030;-75
2022/10/11 04:24:13;;;;;;;5.40;1.90;;;;;;;4.46;80.57;102494.78;5011282;28;20038;-74
2022/10/11 04:26:39;;;;;;;4.85;2.22;;;;;;;4.46;80.74;102494.78;5011788;28;20434;-74
2022/10/11 04:29:04;;;;;;;4.85;2.00;;;;;;;4.46;80.54;102497.34;5012776;28;20036;-74
2022/10/11 04:31:30;;;;;;;5.40;2.20;;;;;;;4.44;80.53;102491.31;5011445;28;20044;-75
2022/10/11 04:33:56;;;;;;;4.75;2.17;;;;;;;4.43;79.83;102499.88;5012067;28;20209;-74
2022/10/11 04:36:22;;;;;;;5.10;2.38;;;;;;;4.38;80.09;102495.47;5010564;28;20040;-74
2022/10/11 04:38:47;;;;;;;5.50;2.00;;;;;;;4.34;79.19;102501.34;5012821;28;20061;-74
2022/10/11 04:41:14;;;;;;;3.00;1.63;;;;;;;4.30;79.01;102504.66;5011387;28;20603;-74
2022/10/11 04:43:39;;;;;;;3.55;1.80;;;;;;;4.25;79.24;102511.44;5013129;28;20033;-75
2022/10/11 04:46:06;;;;;;;3.03;1.70;;;;;;;4.20;79.52;102507.84;5011863;28;20053;-75
2022/10/11 04:48:31;;;;;;;3.20;1.83;;;;;;;4.18;79.81;102504.34;5011826;28;20030;-75
2022/10/11 04:50:57;;;;;;;3.58;1.98;;;;;;;4.19;80.28;102508.66;5010401;28;20050;-74
2022/10/11 04:53:23;;;;;;;3.63;1.77;;;;;;;4.20;80.28;102511.28;5011306;28;20112;-75
2022/10/11 04:55:59;;;;;;;3.45;1.95;;;;;;;4.19;80.16;102512.09;5011495;28;20458;-75
2022/10/11 04:58:26;;;;;;;4.03;1.52;;;;;;;4.19;80.19;102511.25;5012960;28;20492;-75
2022/10/11 05:00:52;;;;;;;4.63;2.00;;;;;;;4.19;80.02;102508.66;5008137;28;20033;-75
2022/10/11 05:03:17;;;;;;;2.93;1.80;;;;;;;4.18;79.87;102509.50;5011622;28;20104;-74
2022/10/11 05:05:42;;;;;;;4.60;1.70;;;;;;;4.16;79.90;102512.03;5012113;28;20103;-75
2022/10/11 05:08:07;;;;;;;2.00;1.50;;;;;;;4.13;80.03;102505.91;5011481;28;20034;-75
2022/10/11 05:10:33;;;;;;;3.37;1.57;;;;;;;4.12;79.87;102514.47;5012873;28;20038;-74
2022/10/11 05:12:58;;;;;;;3.33;1.60;;;;;;;4.10;80.59;102511.84;5011651;28;20033;-74
2022/10/11 05:15:23;;;;;;;4.03;1.90;;;;;;;4.10;80.27;102517.88;5012632;28;20041;-75
2022/10/11 05:17:48;;;;;;;3.60;1.65;;;;;;;4.09;80.17;102523.88;5012918;28;20030;-74
2022/10/11 05:20:14;;;;;;;2.42;1.40;;;;;;;4.10;80.31;102520.44;5013011;28;20041;-74
2022/10/11 05:22:39;;;;;;;4.20;1.97;;;;;;;4.09;80.22;102523.00;5013663;28;20036;-74
2022/10/11 05:25:05;;;;;;;3.53;2.07;;;;;;;4.08;79.60;102528.97;5011886;28;20393;-74
2022/10/11 05:27:30;;;;;;;3.43;2.00;;;;;;;4.04;79.92;102528.00;5012816;28;20117;-74
2022/10/11 05:29:55;;;;;;;4.68;2.10;;;;;;;4.00;80.27;102521.03;5011822;28;20030;-75
2022/10/11 05:32:21;;;;;;;4.13;1.90;;;;;;;4.00;79.73;102522.75;5010334;28;20025;-75
2022/10/11 05:34:46;;;;;;;3.20;2.00;;;;;;;3.98;79.55;102527.81;5010635;28;20029;-75
2022/10/11 05:37:11;;;;;;;5.60;2.07;;;;;;;3.94;80.18;102542.31;5010875;28;20099;-74
2022/10/11 05:39:36;;;;;;;4.13;1.93;;;;;;;3.90;80.18;102537.03;5011843;28;20044;-75
2022/10/11 05:42:02;;;;;;;5.17;2.30;;;;;;;3.84;79.05;102524.88;5009753;28;20473;-75
2022/10/11 05:44:27;;;;;;;3.57;2.10;;;;;;;3.80;78.74;102526.47;5011559;28;20083;-75
2022/10/11 05:46:52;;;;;;;4.23;2.00;;;;;;;3.78;78.93;102535.84;5010682;28;20045;-74
2022/10/11 05:49:18;;;;;;;5.67;2.20;;;;;;;3.78;79.51;102545.28;5008165;28;20025;-75
2022/10/11 05:51:43;;;;;;;3.23;1.90;;;;;;;3.77;79.43;102541.81;4993031;28;20034;-74
2022/10/11 05:54:08;;;;;;;6.10;2.00;;;;;;;3.78;80.01;102546.13;4994678;28;20477;-74
2022/10/11 05:56:33;;;;;;;4.50;2.30;;;;;;;3.79;79.83;102547.88;5011375;28;20156;-74
2022/10/11 05:58:59;;;;;;;4.90;2.23;;;;;;;3.79;80.06;102542.72;4993870;28;20026;-74
2022/10/11 06:01:26;;;;;;;3.00;1.90;;;;;;;3.78;80.00;102551.28;5011037;28;20482;-74
2022/10/11 06:03:51;;;;;;;2.70;1.70;;;;;;;3.75;79.73;102545.19;5008479;28;20161;-74
2022/10/11 06:06:18;;;;;;;3.00;1.80;;;;;;;3.70;79.45;102557.91;5008174;28;20108;-75
2022/10/11 06:08:44;;;;;;;2.73;1.70;;;;;;;3.70;80.06;102557.91;5010161;28;20026;-75
2022/10/11 06:11:14;;;;;;;3.30;1.90;;;;;;;3.71;79.80;102559.66;5011407;28;20041;-74
2022/10/11 06:13:39;;;;;;;3.70;1.92;;;;;;;3.72;80.41;102558.84;5011641;28;20034;-75
2022/10/11 06:16:05;;;;;;;4.57;2.23;;;;;;;3.72;80.30;102564.00;5010269;28;20034;-75
2022/10/11 06:18:31;;;;;;;3.30;2.13;;;;;;;3.73;80.47;102560.59;5009944;28;20033;-74
2022/10/11 06:20:57;;;;;;;5.90;2.17;;;;;;;3.74;80.54;102562.34;5009379;28;20033;-74
2022/10/11 06:23:22;;;;;;;7.27;2.17;;;;;;;3.75;80.60;102579.53;4994396;28;20052;-75
2022/10/11 06:26:05;;;;;;;5.53;2.60;;;;;;;3.80;80.62;102569.38;5009885;28;20473;-75
2022/10/11 06:28:31;;;;;;;6.23;2.70;;;;;;;3.82;81.45;102570.28;5011395;28;20039;-75
2022/10/11 06:30:56;;;;;;;4.20;2.13;;;;;;;3.85;80.46;102574.66;5009778;28;20096;-74
2022/10/11 06:33:22;;;;;;;4.40;2.57;;;;;;;3.85;80.51;102572.06;5011505;28;20022;-74
2022/10/11 06:35:47;;;;;;;3.67;2.27;;;;;;;3.87;80.10;102578.16;5010244;28;20116;-75
2022/10/11 06:38:13;;;;;;;4.17;2.30;;;;;;;3.89;80.37;102584.22;5015071;28;20064;-74
2022/10/11 06:40:38;;;;;;;4.47;2.37;;;;;;;3.91;80.37;102588.56;5012918;28;20526;-75
2022/10/11 06:43:03;;;;;;;6.23;2.70;;;;;;;3.99;80.99;102583.66;5013852;28;20033;-75
2022/10/11 06:45:29;;;;;;;5.63;2.73;;;;;;;4.05;81.37;102589.00;5012951;28;20459;-74
2022/10/11 06:47:54;;;;;;;5.70;3.00;;;;;;;4.09;81.21;102588.28;5014624;28;20026;-75
2022/10/11 06:50:19;;;;;;;5.97;2.80;;;;;;;4.14;81.59;102590.97;5013270;28;20029;-75
2022/10/11 06:52:45;;;;;;;6.87;2.63;;;;;;;4.20;81.14;102590.28;5013830;28;20033;-75
2022/10/11 06:55:11;;;;;;;6.27;2.80;;;;;;;4.24;81.17;102592.13;5013461;28;20080;-74
2022/10/11 06:57:36;;;;;;;5.57;2.93;;;;;;;4.31;81.38;102601.75;4994945;28;20029;-74
2022/10/11 07:00:02;;;;;;;4.97;3.17;;;;;;;4.38;81.43;102592.50;5015425;28;20377;-74
2022/10/11 07:02:27;;;;;;;8.23;3.03;;;;;;;4.44;81.80;102595.25;5014797;28;20147;-75
2022/10/11 07:04:53;;;;;;;6.57;2.78;;;;;;;4.50;81.76;102599.69;5012727;28;20418;-74
2022/10/11 07:07:18;;;;;;;5.38;3.05;;;;;;;4.58;82.29;102602.50;5014032;28;20037;-74
2022/10/11 07:09:43;;;;;;;6.78;3.17;;;;;;;4.63;82.93;102604.34;5014146;28;20061;-75
2022/10/11 07:12:09;;;;;;;6.03;3.30;;;;;;;4.73;83.76;102602.03;5013031;28;20485;-74
2022/10/11 07:14:34;;;;;;;7.25;3.55;;;;;;;4.82;84.76;102607.44;5014809;28;20039;-75
2022/10/11 07:16:59;;;;;;;7.07;3.65;;;;;;;4.93;84.77;102605.16;5015330;28;20030;-75
2022/10/11 07:19:24;;;;;;;7.13;3.88;;;;;;;5.05;85.34;102609.75;5013441;28;20030;-75
2022/10/11 07:21:50;;;;;;;8.85;3.88;;;;;;;5.14;85.55;102615.13;4997822;28;20038;-74
2022/10/11 07:24:15;;;;;;;7.68;4.53;;;;;;;5.23;86.56;102615.38;5014348;28;20474;-75
2022/10/11 07:26:41;;;;;;;7.45;3.72;;;;;;;5.35;86.09;102616.53;5015185;28;20485;-74
2022/10/11 07:29:07;;;;;;;9.95;3.88;;;;;;;5.43;86.84;102609.84;5012299;28;20037;-75
2022/10/11 07:31:33;;;;;;;7.85;4.25;;;;;;;5.51;86.84;102620.34;5011796;28;20025;-75
2022/10/11 07:33:58;;;;;;;7.93;4.53;;;;;;;5.61;87.07;102619.72;5011333;28;20507;-75
2022/10/11 07:36:24;;;;;;;7.15;4.18;;;;;;;5.70;87.03;102621.66;5009023;28;20025;-74
2022/10/11 07:38:49;;;;;;;11.77;4.30;;;;;;;5.79;87.30;102621.88;5011961;28;20032;-74
2022/10/11 07:41:15;;;;;;;11.57;4.32;;;;;;;5.87;87.62;102622.91;5009112;28;20061;-74
2022/10/11 07:43:42;;;;;;;7.28;4.35;;;;;;;5.96;87.75;102626.56;5011375;28;20025;-74
2022/10/11 07:46:08;;;;;;;8.38;4.55;;;;;;;6.04;87.31;102622.47;5011722;28;21121;-73
2022/10/11 07:48:34;;;;;;;9.60;4.60;;;;;;;6.12;87.82;102623.50;5006810;28;20072;-75
2022/10/11 07:51:09;;;;;;;9.30;4.80;;;;;;;6.20;88.29;102629.69;5005570;28;20495;-74
2022/10/11 07:53:42;;;;;;;8.55;3.97;;;;;;;6.30;88.33;102624.75;5005885;28;20117;-74
2022/10/11 07:56:09;;;;;;;8.05;4.15;;;;;;;6.40;88.27;102626.66;5002251;28;20025;-74
2022/10/11 07:58:34;;;;;;;8.00;4.43;;;;;;;6.48;88.37;102630.28;5003334;28;20034;-75
2022/10/11 08:00:59;;;;;;;9.73;3.72;;;;;;;6.57;88.42;102631.31;5005098;28;20034;-75
2022/10/11 08:03:25;;;;;;;8.23;4.13;;;;;;;6.67;88.36;102634.09;5003758;28;20034;-75
2022/10/11 08:05:51;;;;;;;7.38;4.03;;;;;;;6.75;88.30;102631.66;5006080;28;20029;-75
2022/10/11 08:08:16;;;;;;;9.85;4.28;;;;;;;6.82;88.29;102630.94;5007368;28;20029;-75
2022/10/11 08:10:42;;;;;;;8.70;4.25;;;;;;;6.90;88.17;102632.78;5004900;28;20034;-74
2022/10/11 08:13:07;;;;;;;7.88;4.15;;;;;;;6.98;88.01;102636.41;5003898;28;20033;-75
2022/10/11 08:15:32;;;;;;;7.85;4.15;;;;;;;7.05;87.99;102635.66;5005465;28;20034;-75
2022/10/11 08:17:58;;;;;;;8.90;3.90;;;;;;;7.11;88.30;102635.78;5005238;28;20105;-75
2022/10/11 08:20:23;;;;;;;7.78;4.13;;;;;;;7.20;88.64;102639.34;5003368;28;20034;-75
2022/10/11 08:22:49;;;;;;;6.57;3.75;;;;;;;7.28;88.67;102640.38;5003902;28;20048;-74
2022/10/11 08:25:14;;;;;;;9.40;3.88;;;;;;;7.36;88.62;102646.53;5004346;28;20034;-75
2022/10/11 08:27:39;;;;;;;8.73;3.83;;;;;;;7.46;88.66;102638.94;5002978;28;20030;-74
2022/10/11 08:30:05;;;;;;;7.38;3.92;;;;;;;7.54;88.69;102637.31;5004950;28;20064;-75
2022/10/11 08:32:30;;;;;;;9.05;3.53;;;;;;;7.64;88.71;102638.34;5002113;28;20029;-74
2022/10/11 08:34:56;;;;;;;8.63;4.07;;;;;;;7.72;88.83;102647.97;5005137;28;20037;-74
2022/10/11 08:37:21;;;;;;;9.73;4.35;;;;;;;7.81;88.92;102641.22;5004357;28;20484;-74
2022/10/11 08:39:46;;;;;;;8.45;4.07;;;;;;;7.93;89.08;102649.16;5004156;28;20030;-74
2022/10/11 08:42:24;;;;;;;8.18;3.90;;;;;;;8.02;89.36;102646.72;5005410;28;20041;-75
2022/10/11 08:44:59;;;;;;;10.15;4.10;;;;;;;8.12;89.27;102654.59;5003957;28;20041;-75
2022/10/11 08:47:32;;;;;;;7.55;3.67;;;;;;;8.22;88.95;102653.88;5003773;28;20088;-75
2022/10/11 08:49:59;;;;;;;11.55;3.60;;;;;;;8.30;88.79;102648.78;5004239;28;20037;-75
2022/10/11 08:52:34;;;;;;;8.60;3.60;;;;;;;8.40;88.38;102653.25;5004151;28;20544;-76
2022/10/11 08:55:16;;;;;;;8.65;3.58;;;;;;;8.48;88.37;102650.78;5003527;28;20431;-75
2022/10/11 08:57:47;;;;;;;8.05;3.53;;;;;;;8.56;87.98;102662.09;5003531;28;20030;-75
2022/10/11 09:00:16;;;;;;;11.35;3.47;;;;;;;8.61;87.92;102657.00;5001756;28;20473;-75
2022/10/11 09:02:56;;;;;;;8.30;3.20;;;;;;;8.70;87.95;102664.03;5003284;28;20029;-75
2022/10/11 09:05:26;;;;;;;10.75;2.90;;;;;;;8.74;87.29;102669.25;5003918;28;20586;-75
2022/10/11 09:08:12;;;;;;;11.90;2.40;;;;;;;8.81;84.92;102667.59;5003587;28;20038;-76
2022/10/11 09:10:54;;;;;;;6.13;1.92;;;;;;;8.90;84.16;102656.44;5003591;28;20049;-76
2022/10/11 09:13:52;;;;;;;6.85;2.45;;;;;;;9.00;84.34;102657.41;5004489;28;20056;-76
2022/10/11 09:16:38;;;;;;;9.40;2.65;;;;;;;9.12;84.92;102657.53;5005219;28;20103;-76
2022/10/11 09:19:45;;;;;;;6.07;2.38;;;;;;;9.19;84.60;102651.53;5007006;28;20481;-76
2022/10/11 09:22:27;;;;;;;5.60;2.13;;;;;;;9.27;83.82;102664.59;5002384;28;20523;-76
2022/10/11 09:25:16;;;;;;;8.32;2.90;;;;;;;9.35;83.67;102668.13;5003941;28;20156;-76
2022/10/11 09:28:12;;;;;;;7.57;2.40;;;;;;;9.45;83.27;102669.06;5004149;28;20030;-76
2022/10/11 09:30:40;;;;;;;7.55;2.08;;;;;;;9.52;81.23;102670.00;5003072;28;20393;-76
2022/10/11 09:33:32;;;;;;;8.98;2.28;;;;;;;9.59;81.15;102673.50;5003071;28;20043;-75
2022/10/11 09:35:58;;;;;;;5.82;1.70;;;;;;;9.66;80.69;102662.31;5002134;28;20032;-76
2022/10/11 09:38:37;;;;;;;7.95;1.95;;;;;;;9.70;79.08;102658.88;5003274;28;20033;-76
2022/10/11 09:41:17;;;;;;;7.90;1.92;;;;;;;9.77;79.78;102663.25;4985918;28;20330;-76
2022/10/11 09:43:49;;;;;;;7.43;2.08;;;;;;;9.81;79.40;102666.75;5000126;28;20509;-76
2022/10/11 09:46:22;;;;;;;;;;;;;;;9.85;80.90;102668.50;5002249;28;21970;-76
2022/10/11 09:48:49;;;;;;;5.20;1.67;;;;;;;9.90;78.88;102660.75;5003994;28;19924;-76
2022/10/11 09:51:18;;;;;;;6.40;1.60;;;;;;;9.94;78.22;102662.50;5003035;28;20084;-76
2022/10/11 09:54:02;;;;;;;4.95;1.67;;;;;;;9.98;78.30;102664.25;5002386;28;20030;-76
2022/10/11 09:56:29;;;;;;;8.88;1.95;;;;;;;10.05;77.82;102666.06;5003905;28;20569;-76
2022/10/11 09:59:39;;;;;;;8.10;1.58;;;;;;;10.11;77.36;102667.81;5003639;28;20034;-77
2022/10/11 10:02:11;;;;;;;7.28;1.85;;;;;;;10.17;77.34;102668.72;4998326;28;20034;-77
2022/10/11 10:04:58;;;;;;;10.35;1.50;;;;;;;10.25;76.94;102662.66;5003277;28;20026;-77
2022/10/11 10:07:24;;;;;;;5.10;1.20;;;;;;;10.32;75.40;102669.66;5002299;28;20049;-74
2022/10/11 10:09:50;;;;;;;5.25;1.60;;;;;;;10.37;75.28;102664.47;5003283;28;20026;-76
2022/10/11 10:12:26;;;;;;;7.15;1.88;;;;;;;10.40;74.60;102667.13;5003530;28;20478;-76
2022/10/11 10:15:03;;;;;;;4.03;1.40;;;;;;;10.44;73.95;102669.72;5007285;28;20030;-76
2022/10/11 10:17:28;;;;;;;6.68;1.13;;;;;;;10.51;73.00;102669.75;5006625;28;20030;-76
2022/10/11 10:19:55;;;;;;;7.28;1.80;;;;;;;10.55;72.67;102661.13;5008066;28;20030;-76
2022/10/11 10:22:26;;;;;;;6.38;1.70;;;;;;;10.61;74.93;102661.13;5005935;28;20057;-76
2022/10/11 10:24:53;;;;;;;6.72;1.67;;;;;;;10.64;73.95;102658.53;5006566;28;20096;-76
2022/10/11 10:27:20;;;;;;;8.18;2.10;;;;;;;10.70;72.67;102660.28;5007339;28;20038;-74
2022/10/11 10:30:07;;;;;;;9.90;2.35;;;;;;;10.77;72.76;102656.84;5005993;28;20503;-74
2022/10/11 10:32:51;;;;;;;8.10;2.13;;;;;;;10.84;72.45;102653.41;5005998;28;20042;-74
2022/10/11 10:35:30;;;;;;;7.25;1.67;;;;;;;10.89;71.84;102656.00;5005681;28;20034;-74
2022/10/11 10:38:30;;;;;;;6.60;1.65;;;;;;;10.94;70.95;102659.47;5005663;28;20026;-75
2022/10/11 10:41:01;;;;;;;5.85;1.85;;;;;;;10.94;68.51;102654.25;5005747;28;20034;-74
2022/10/11 10:43:32;;;;;;;7.35;1.30;;;;;;;10.95;68.26;102656.00;5006795;28;20038;-74
2022/10/11 10:46:08;;;;;;;4.57;1.37;;;;;;;10.99;68.71;102656.91;5008736;28;20069;-77
2022/10/11 10:48:39;;;;;;;4.93;1.20;;;;;;;11.03;66.74;102662.09;5010130;28;20056;-77
2022/10/11 10:51:51;;;;;;;5.97;1.40;;;;;;;11.10;69.08;102662.13;5010278;28;20065;-77
2022/10/11 10:54:25;;;;;;;;;;;;;;;11.15;70.91;102657.78;5008367;28;20038;-75
2022/10/11 10:56:56;;;;;;;4.28;1.20;;;;;;;11.16;66.69;102657.78;5010013;28;19913;-75
2022/10/11 10:59:33;;;;;;;5.97;1.20;;;;;;;11.20;66.92;102650.84;5009148;28;20026;-75
2022/10/11 11:02:20;;;;;;;4.38;1.15;;;;;;;11.24;68.20;102652.59;5007050;28;20435;-75
2022/10/11 11:04:57;;;;;;;6.07;1.30;;;;;;;11.27;67.18;102650.00;5007136;28;20034;-75
2022/10/11 11:07:29;;;;;;;4.68;1.13;;;;;;;11.30;66.03;102646.50;5008426;28;20049;-75
2022/10/11 11:10:12;;;;;;;;;;;;;;;11.35;70.36;102648.25;5010645;28;20045;-75
2022/10/11 11:12:49;;;;;;;4.55;1.20;;;;;;;11.39;65.15;102647.38;5009910;28;19913;-75
2022/10/11 11:15:34;;;;;;;7.57;1.48;;;;;;;11.45;65.64;102638.69;5009630;28;20041;-75
2022/10/11 11:18:15;;;;;;;4.95;1.10;;;;;;;11.46;65.66;102640.41;5007532;28;20052;-75
2022/10/11 11:21:18;;;;;;;4.43;1.23;;;;;;;11.51;66.42;102635.19;5007107;28;20030;-75
2022/10/11 11:24:09;;;;;;;8.32;1.30;;;;;;;11.55;64.57;102639.53;5007970;28;20044;-74
2022/10/11 11:26:46;;;;;;;6.75;1.17;;;;;;;11.58;64.29;102636.94;5008251;28;20026;-75
2022/10/11 11:29:30;;;;;;;6.60;1.20;;;;;;;11.61;66.01;102631.72;5007956;28;20386;-75
2022/10/11 11:32:20;;;;;;;7.00;1.48;;;;;;;11.64;66.23;102631.69;5008585;28;20037;-75
2022/10/11 11:34:52;;;;;;;8.90;1.40;;;;;;;11.70;65.05;102630.81;5003938;28;20113;-75
2022/10/11 11:37:40;;;;;;;5.68;1.10;;;;;;;11.74;63.67;102622.13;5008255;28;20465;-74
2022/10/11 11:40:30;;;;;;;7.35;0.98;;;;;;;11.81;65.24;102622.97;5005884;28;20034;-75
2022/10/11 11:43:04;;;;;;;4.47;0.98;;;;;;;11.85;63.06;102619.50;5005756;28;20112;-76
2022/10/11 11:45:41;;;;;;;5.85;0.90;;;;;;;11.91;64.64;102614.28;5006468;28;20044;-76
2022/10/11 11:48:16;;;;;;;7.20;1.00;;;;;;;11.98;64.05;102615.13;5006252;28;20119;-74